Portada
METAR-TAF:

METAR-TAF

Aeroports :

Aeroport d'Alacant-Elx

Alacant, Espanya

latitud: 38-17N, longitud: 000-33W, altitud: 43 m

Observació

L'informe es va fer fa 39 minuts, a les 22:30 UTC
Vent 5 kt del Oest/Nord-Oest
Temperatura 9°C
Humitat 66%
Pressió 1015 hPa
Visibilitat 10 km o més
sense núvols per sota de 1500 mi sense presència de cumulonimbus.

METAR: LEAL 192230Z 30005KT CAVOK 09/03 Q1015 NOSIG

Hora: 00:09 (23:09 UTC)

Pronòstic

L'informe es va fer fa 6 hores i 9 minuts, a les 17:00 UTC
Pronòstic vàlid del 19 a les 18 UTC al 20 a les 18 UTC
Vent 8 kt del Oest
Visibilitat 10 km o més
Escasses núvols a una alçada de 1000 ft
Evolucionant progressivament
l' 20 a les 10 UTC al 20 a les 12 UTC
Vent 10 kt del Sud/Sud-Oest

TAF: LEAL 191700Z 1918/2018 28008KT 9999 FEW010 TX15/2013Z TN06/2006Z BECMG 2010/2012 21010KT

Observacions i pronòstics meteorològics de més de 4000 aeroports (METAR i TAF).

Les estacions disponibles són els punts grocs i vermells al mapa.

Posi el ratolí al punt desitjat per veure el nom de l'estació.

Feu clic per veure les observacions i els pronòstics meteorològics.

Per canviar el mapa: feu clic els botons verds amb una creu de color negre per apropar; al botó verd amb un guió per allunyar la imatge; o en les fletxes verdes per a mapes adjacents.


METAR-TAF: